Time;durP1;ratioP1;P1;durP2;ratioP2;P2;SDS_P1;SDS_P2;PMS_P1;PMS_P2;Temp;Humidity;BMP_temperature;BMP_pressure;BME280_temperature;BME280_humidity;BME280_pressure;Samples;Min_cycle;Max_cycle;Signal;HPM_P1;HPM_P2
2019/05/14 00:02:30;;;;;;;8.4;4;;;;;;;7.82;75.82422;949.5701;;;;
2019/05/14 00:04:55;;;;;;;9.7;4;;;;;;;7.75;76.13086;949.5192;;;;
2019/05/14 00:07:26;;;;;;;9;4.2;;;;;;;7.55;76.49023;949.5029;;;;
2019/05/14 00:09:58;;;;;;;10.7;3.9;;;;;;;7.43;76.81152;949.5398;;;;
2019/05/14 00:12:30;;;;;;;7.7;3.9;;;;;;;7.08;78.29785;949.5154;;;;
2019/05/14 00:15:06;;;;;;;6.5;3.6;;;;;;;7.04;77.5332;949.5351;;;;
2019/05/14 00:17:40;;;;;;;7.5;3.8;;;;;;;7.27;76.79395;949.4529;;;;
2019/05/14 00:20:10;;;;;;;8.4;3.9;;;;;;;7.41;75.94336;949.4441;;;;
2019/05/14 00:22:35;;;;;;;7.4;4.3;;;;;;;7.43;75.72168;949.4216;;;;
2019/05/14 00:25:08;;;;;;;8.5;4.2;;;;;;;7.59;75.47949;949.4025;;;;
2019/05/14 00:27:37;;;;;;;8.8;4.2;;;;;;;7.65;75.16992;949.3064;;;;
2019/05/14 00:30:02;;;;;;;8.3;4.4;;;;;;;7.61;74.88184;949.3338;;;;
2019/05/14 00:32:37;;;;;;;7.5;4.2;;;;;;;7.71;74.5;949.2558;;;;
2019/05/14 00:35:06;;;;;;;8.7;4.2;;;;;;;7.67;74.77734;949.275;;;;
2019/05/14 00:37:36;;;;;;;9.3;4;;;;;;;7.43;76.05176;949.2608;;;;
2019/05/14 00:40:09;;;;;;;7.5;3.7;;;;;;;7.07;77.48145;949.2245;;;;
2019/05/14 00:42:47;;;;;;;7.3;3.8;;;;;;;7.09;77.70117;949.2357;;;;
2019/05/14 00:45:11;;;;;;;8.6;4.3;;;;;;;7.21;76.54297;949.2117;;;;
2019/05/14 00:47:44;;;;;;;7.6;3.6;;;;;;;7.24;75.95996;949.2222;;;;
2019/05/14 00:50:14;;;;;;;11.8;3.7;;;;;;;7.06;77.07324;949.1576;;;;
2019/05/14 00:52:45;;;;;;;7.5;3.7;;;;;;;7.13;76.56348;949.1152;;;;
2019/05/14 00:55:11;;;;;;;8.6;3.6;;;;;;;7.15;76.11523;949.0797;;;;
2019/05/14 00:57:45;;;;;;;6;3.7;;;;;;;7.1;76.09473;949.0452;;;;
2019/05/14 01:00:17;;;;;;;7.1;3.7;;;;;;;7.12;75.80273;949.0736;;;;
2019/05/14 01:02:46;;;;;;;8.6;4;;;;;;;6.97;76.63672;949.0871;;;;
2019/05/14 01:05:14;;;;;;;9.2;4.3;;;;;;;6.93;77.23047;949.0895;;;;
2019/05/14 01:07:46;;;;;;;8.4;4.1;;;;;;;6.72;78.01855;949.1108;;;;
2019/05/14 01:10:18;;;;;;;8.3;3.9;;;;;;;6.71;78.08496;949.175;;;;
2019/05/14 01:13:01;;;;;;;8.1;4.3;;;;;;;6.56;78.54395;949.2177;;;;
2019/05/14 01:15:29;;;;;;;8.3;5;;;;;;;6.67;77.16016;949.1395;;;;
2019/05/14 01:17:57;;;;;;;8.3;4.7;;;;;;;6.69;76.71094;949.0747;;;;
2019/05/14 01:20:29;;;;;;;9.6;5.1;;;;;;;6.62;77.32227;949.1044;;;;
2019/05/14 01:23:04;;;;;;;8.4;5.5;;;;;;;6.47;78.05176;949.1514;;;;
2019/05/14 01:25:44;;;;;;;8.7;5.2;;;;;;;6.61;77.17188;949.0883;;;;
2019/05/14 01:28:14;;;;;;;6.2;4.3;;;;;;;6.67;76.87793;949.0549;;;;
2019/05/14 01:30:39;;;;;;;6.3;3.7;;;;;;;6.63;76.82617;949.0699;;;;
2019/05/14 01:33:05;;;;;;;7.2;3.9;;;;;;;6.56;76.53027;949.0911;;;;
2019/05/14 01:35:38;;;;;;;7.8;4.4;;;;;;;6.61;76.55078;949.1261;;;;
2019/05/14 01:38:26;;;;;;;7.1;3.9;;;;;;;6.67;76.22168;949.1182;;;;
2019/05/14 01:43:26;;;;;;;7.3;4;;;;;;;6.59;76.09375;948.9793;;;;
2019/05/14 01:45:57;;;;;;;9.8;4.3;;;;;;;6.29;77.75879;949.0439;;;;
2019/05/14 01:48:20;;;;;;;8.9;5.5;;;;;;;6.35;78.2793;949.0488;;;;
2019/05/14 01:50:51;;;;;;;9.2;4.9;;;;;;;6.44;77.40234;949.0394;;;;
2019/05/14 01:53:15;;;;;;;7.4;4.2;;;;;;;6.28;77.40723;949.0783;;;;
2019/05/14 01:55:48;;;;;;;8.7;4.7;;;;;;;6.05;78.70898;949.0797;;;;
2019/05/14 01:58:21;;;;;;;9.9;5.9;;;;;;;6.24;77.75098;948.9626;;;;
2019/05/14 02:05:10;;;;;;;9.6;5.6;;;;;;;6.19;78.62109;948.873;;;;
2019/05/14 02:07:21;;;;;;;11.9;5.7;;;;;;;6;79.1416;948.9724;;;;
2019/05/14 02:09:54;;;;;;;9.3;5.3;;;;;;;6.22;77.92676;948.8881;;;;
2019/05/14 02:12:17;;;;;;;8.2;4.1;;;;;;;6.28;77.55371;948.8384;;;;
2019/05/14 02:14:51;;;;;;;7.2;4.6;;;;;;;6.31;77.20898;948.8237;;;;
2019/05/14 02:17:21;;;;;;;8.3;4.1;;;;;;;6.29;77.28418;948.7447;;;;
2019/05/14 02:19:55;;;;;;;7.1;4;;;;;;;6.09;77.8252;948.7272;;;;
2019/05/14 02:22:25;;;;;;;9.6;4.1;;;;;;;5.97;78.15234;948.671;;;;
2019/05/14 02:24:52;;;;;;;8.3;4.4;;;;;;;6;77.85352;948.61;;;;
2019/05/14 02:27:19;;;;;;;7.6;3.9;;;;;;;6.09;77.49902;948.5244;;;;
2019/05/14 02:29:48;;;;;;;9.4;4;;;;;;;5.82;77.91113;948.6293;;;;
2019/05/14 02:32:20;;;;;;;9.3;4.2;;;;;;;5.8;78.26953;948.5789;;;;
2019/05/14 02:34:49;;;;;;;6.8;4.5;;;;;;;6.11;76.81152;948.5826;;;;
2019/05/14 02:37:24;;;;;;;7.3;4.4;;;;;;;6.19;76.15918;948.5396;;;;
2019/05/14 02:40:10;;;;;;;6.9;4.4;;;;;;;6.3;75.47754;948.5206;;;;
2019/05/14 02:42:42;;;;;;;5.6;4.2;;;;;;;6.02;76.17383;948.3772;;;;
2019/05/14 02:45:13;;;;;;;8.3;4.4;;;;;;;5.81;78.22559;948.5073;;;;
2019/05/14 02:47:46;;;;;;;7;5;;;;;;;6.04;76.90137;948.4431;;;;
2019/05/14 02:50:11;;;;;;;10.5;4.9;;;;;;;6.25;75.62695;948.4687;;;;
2019/05/14 02:52:43;;;;;;;8;4.6;;;;;;;6.07;76.22852;948.4919;;;;
2019/05/14 02:55:13;;;;;;;7.5;4.4;;;;;;;5.82;77.84375;948.5023;;;;
2019/05/14 02:57:36;;;;;;;12.5;4.5;;;;;;;5.71;77.86914;948.5844;;;;
2019/05/14 03:00:07;;;;;;;8.3;4.6;;;;;;;5.51;79.10742;948.5119;;;;
2019/05/14 03:02:34;;;;;;;8.7;4.9;;;;;;;5.59;78.66016;948.4902;;;;
2019/05/14 03:05:05;;;;;;;7.6;4.6;;;;;;;5.37;79.54395;948.5114;;;;
2019/05/14 03:07:39;;;;;;;8.8;5.3;;;;;;;5.35;79.83398;948.4578;;;;
2019/05/14 03:10:06;;;;;;;8.8;5.1;;;;;;;5.49;79.22656;948.4455;;;;
2019/05/14 03:12:36;;;;;;;7.5;4;;;;;;;5.4;79.95508;948.5183;;;;
2019/05/14 03:15:07;;;;;;;8.8;3.8;;;;;;;5.05;79.6543;948.3988;;;;
2019/05/14 03:17:37;;;;;;;8.6;4.6;;;;;;;4.77;81.28027;948.4688;;;;
2019/05/14 03:20:05;;;;;;;13;4.6;;;;;;;4.77;81.82129;948.5237;;;;
2019/05/14 03:22:34;;;;;;;9.3;4.4;;;;;;;5.06;80.39941;948.4742;;;;
2019/05/14 03:24:58;;;;;;;9.7;4.4;;;;;;;5.25;79.57813;948.3836;;;;
2019/05/14 03:27:28;;;;;;;9.5;4.9;;;;;;;5.56;77.69434;948.4373;;;;
2019/05/14 03:29:53;;;;;;;11.2;4.1;;;;;;;5.48;77.86035;948.459;;;;
2019/05/14 03:32:35;;;;;;;9.8;4.7;;;;;;;5.56;77.77344;948.3616;;;;
2019/05/14 03:34:57;;;;;;;8.2;4.2;;;;;;;5.68;77.39941;948.3591;;;;
2019/05/14 03:37:31;;;;;;;8.1;4.6;;;;;;;5.71;76.88672;948.3401;;;;
2019/05/14 03:40:02;;;;;;;9.6;4.3;;;;;;;5.77;76.53613;948.3025;;;;
2019/05/14 03:42:38;;;;;;;15.5;4.3;;;;;;;5.83;76.625;948.2825;;;;
2019/05/14 03:45:00;;;;;;;12.1;5;;;;;;;5.76;76.97559;948.2317;;;;
2019/05/14 03:47:32;;;;;;;14.1;5.4;;;;;;;5.38;78.57715;948.2578;;;;
2019/05/14 03:49:53;;;;;;;14.6;5.3;;;;;;;5.48;77.30664;948.2609;;;;
2019/05/14 03:52:28;;;;;;;16.2;5.2;;;;;;;5.68;76.60938;948.1482;;;;
2019/05/14 03:55:00;;;;;;;13.2;4.8;;;;;;;5.64;76.33203;948.0453;;;;
2019/05/14 03:57:25;;;;;;;13.2;5.1;;;;;;;5.43;77.6582;948.163;;;;
2019/05/14 03:59:53;;;;;;;12.1;5.3;;;;;;;5.51;78.02441;948.1666;;;;
2019/05/14 04:09:07;;;;;;;10.1;5.1;;;;;;;5.21;79.12988;948.2256;;;;
2019/05/14 04:11:38;;;;;;;8;4.8;;;;;;;5.21;78.99414;948.1584;;;;
2019/05/14 04:14:03;;;;;;;10.5;4.9;;;;;;;5.16;79.67383;948.1992;;;;
2019/05/14 04:16:35;;;;;;;9.9;5;;;;;;;5.4;78.19629;948.2524;;;;
2019/05/14 04:19:03;;;;;;;10.2;5.3;;;;;;;5.64;76.74902;948.2643;;;;
2019/05/14 04:21:28;;;;;;;8.5;4.4;;;;;;;5.52;77.65332;948.3173;;;;
2019/05/14 04:24:04;;;;;;;10;4.4;;;;;;;5.61;77.17383;948.3546;;;;
2019/05/14 04:26:32;;;;;;;10.2;4;;;;;;;5.49;76.77832;948.2645;;;;
2019/05/14 04:28:58;;;;;;;9.3;4.2;;;;;;;5.59;75.74805;948.3132;;;;
2019/05/14 04:31:30;;;;;;;10.4;4.1;;;;;;;5.29;77.34082;948.3223;;;;
2019/05/14 04:34:00;;;;;;;9.1;4.2;;;;;;;5.31;77.66113;948.2411;;;;
2019/05/14 04:36:29;;;;;;;11.3;4.4;;;;;;;5.39;77.65137;948.2867;;;;
2019/05/14 04:38:59;;;;;;;7.6;4.5;;;;;;;5.36;77.92871;948.2466;;;;
2019/05/14 04:41:27;;;;;;;6.4;4;;;;;;;5.08;79.55762;948.296;;;;
2019/05/14 04:43:54;;;;;;;20.5;4.2;;;;;;;4.84;80.10938;948.394;;;;
2019/05/14 04:46:27;;;;;;;6;3.1;;;;;;;4.71;80.50195;948.4009;;;;
2019/05/14 04:48:59;;;;;;;11.4;3.6;;;;;;;4.75;79.67578;948.3736;;;;
2019/05/14 04:51:27;;;;;;;11.5;4.1;;;;;;;4.75;79.58691;948.3731;;;;
2019/05/14 04:53:57;;;;;;;11.5;4.2;;;;;;;4.89;78.93652;948.3571;;;;
2019/05/14 04:56:23;;;;;;;18.8;4.1;;;;;;;4.75;80.21777;948.3605;;;;
2019/05/14 04:58:48;;;;;;;13.6;4.3;;;;;;;4.73;80.12305;948.3406;;;;
2019/05/14 05:01:18;;;;;;;10.8;4.3;;;;;;;4.81;79.73242;948.3533;;;;
2019/05/14 05:03:45;;;;;;;7.4;4.1;;;;;;;5;79.25098;948.3592;;;;
2019/05/14 05:06:07;;;;;;;14.4;5;;;;;;;5.19;79.09277;948.252;;;;
2019/05/14 05:08:34;;;;;;;17.4;4.4;;;;;;;5.16;78.94141;948.2366;;;;
2019/05/14 05:11:00;;;;;;;15;4.4;;;;;;;5.39;77.56152;948.085;;;;
2019/05/14 05:13:27;;;;;;;16.6;4.8;;;;;;;5.5;77.72949;948.1458;;;;
2019/05/14 05:15:58;;;;;;;13.7;4;;;;;;;5.85;78.20996;948.0539;;;;
2019/05/14 05:18:24;;;;;;;9;3.3;;;;;;;6.42;76.87793;948.0748;;;;
2019/05/14 05:20:53;;;;;;;9;2.7;;;;;;;7.55;71.72852;948.07;;;;
2019/05/14 05:23:25;;;;;;;10.9;2.9;;;;;;;8.12;67.56543;948.0697;;;;
2019/05/14 05:25:52;;;;;;;8;2.9;;;;;;;7.97;67.34863;947.9911;;;;
2019/05/14 05:28:20;;;;;;;8.3;2.6;;;;;;;8.04;69.22168;948.0455;;;;
2019/05/14 05:30:43;;;;;;;11.9;2.6;;;;;;;8.33;69.65527;948.0168;;;;
2019/05/14 05:33:09;;;;;;;9.2;2.7;;;;;;;9.03;66.36816;947.9637;;;;
2019/05/14 05:35:36;;;;;;;6;3.1;;;;;;;9.52;65.96289;947.9534;;;;
2019/05/14 05:38:00;;;;;;;9.9;2.8;;;;;;;10.24;62.27441;947.942;;;;
2019/05/14 05:40:24;;;;;;;5.9;2.6;;;;;;;11.01;59.03516;947.9283;;;;
2019/05/14 05:42:59;;;;;;;5.6;2.6;;;;;;;10.47;60.46973;947.9411;;;;
2019/05/14 05:45:32;;;;;;;10.9;3.4;;;;;;;9.68;63.86816;947.9757;;;;
2019/05/14 05:47:57;;;;;;;13.8;4.1;;;;;;;10.49;61.73926;948.0284;;;;
2019/05/14 05:52:01;;;;;;;11.7;4.3;;;;;;;11.08;59.42383;947.948;;;;
2019/05/14 05:54:34;;;;;;;15.7;4.1;;;;;;;12.62;54.3457;947.9519;;;;
2019/05/14 05:57:06;;;;;;;19.5;5;;;;;;;10.97;59.70508;947.9227;;;;
2019/05/14 05:59:38;;;;;;;12.3;4.4;;;;;;;11.2;57.7002;947.9769;;;;
2019/05/14 06:02:07;;;;;;;17.4;4.9;;;;;;;10.91;59.9707;948.0002;;;;
2019/05/14 06:04:33;;;;;;;16;4.1;;;;;;;11.74;58.20898;948.0342;;;;
2019/05/14 06:07:07;;;;;;;10.3;3.5;;;;;;;12.02;57.39746;947.9991;;;;
2019/05/14 06:09:38;;;;;;;9.2;3.3;;;;;;;12.49;53.53809;947.9501;;;;
2019/05/14 06:12:01;;;;;;;13;5.3;;;;;;;12.27;54.67969;947.9442;;;;
2019/05/14 06:14:32;;;;;;;16.6;5.2;;;;;;;11.65;56.65039;947.9021;;;;
2019/05/14 06:17:06;;;;;;;15.1;3.9;;;;;;;11.68;57.95996;947.9291;;;;
2019/05/14 06:19:33;;;;;;;9;3.1;;;;;;;11.08;57.82324;947.952;;;;
2019/05/14 06:22:02;;;;;;;10.4;3.1;;;;;;;11.57;58.50781;947.9291;;;;
2019/05/14 06:25:44;;;;;;;8.9;2.7;;;;;;;11.34;56.89746;947.8248;;;;
2019/05/14 06:27:18;;;;;;;6.3;2.5;;;;;;;12.23;55.09863;947.739;;;;
2019/05/14 06:29:59;;;;;;;6;2.4;;;;;;;13.31;53.76465;947.807;;;;
2019/05/14 06:32:22;;;;;;;7.1;2.9;;;;;;;14.13;51.11523;947.7233;;;;
2019/05/14 06:34:48;;;;;;;10.5;2.8;;;;;;;14.55;48.6416;947.6803;;;;
2019/05/14 06:37:16;;;;;;;9;2.9;;;;;;;14.76;47.00391;947.6601;;;;
2019/05/14 06:39:40;;;;;;;11.4;2.8;;;;;;;16.23;44.27051;947.7216;;;;
2019/05/14 06:42:12;;;;;;;6.5;2.5;;;;;;;16.49;42.60742;947.6566;;;;
2019/05/14 08:43:49;;;;;;;6.6;2.5;;;;;;;10.42;56.18164;947.0027;;;;
2019/05/14 08:46:21;;;;;;;9;3.5;;;;;;;10.25;57.41602;946.9943;;;;
2019/05/14 08:48:52;;;;;;;8.7;3.6;;;;;;;10.17;56.24121;946.9743;;;;
2019/05/14 08:51:21;;;;;;;8.5;3.5;;;;;;;10.21;57.61523;946.9166;;;;
2019/05/14 08:54:02;;;;;;;10.7;3.6;;;;;;;10.8;57.85352;946.9719;;;;
2019/05/14 08:56:24;;;;;;;9.3;3.4;;;;;;;12.34;57.34863;946.8641;;;;
2019/05/14 08:59:03;;;;;;;10.5;2.8;;;;;;;14.39;45.26074;946.7544;;;;
2019/05/14 09:01:27;;;;;;;8.4;3.2;;;;;;;14.34;45.27637;946.7299;;;;
2019/05/14 09:03:55;;;;;;;6.5;2.6;;;;;;;16.12;41.27441;946.6619;;;;
2019/05/14 09:06:25;;;;;;;5.1;2.6;;;;;;;16.3;40.00879;946.6302;;;;
2019/05/14 09:08:51;;;;;;;6.1;2.7;;;;;;;15.09;40.26758;946.5891;;;;
2019/05/14 09:11:19;;;;;;;6.7;2.5;;;;;;;15.14;42.47559;946.5974;;;;
2019/05/14 09:13:44;;;;;;;5.9;2.1;;;;;;;15.4;37.58203;946.5066;;;;
2019/05/14 09:16:10;;;;;;;4.8;2;;;;;;;14.98;36.10352;946.5144;;;;
2019/05/14 09:18:40;;;;;;;4.8;2;;;;;;;14.84;36.20801;946.4807;;;;
2019/05/14 09:21:15;;;;;;;5.6;2.1;;;;;;;14.68;35.03125;946.505;;;;
2019/05/14 09:23:47;;;;;;;7.3;2.2;;;;;;;14.15;37.15234;946.4612;;;;
2019/05/14 09:26:16;;;;;;;4.6;2.1;;;;;;;13.61;35.86426;946.4182;;;;
2019/05/14 09:28:51;;;;;;;4.3;1.9;;;;;;;12.89;38.84668;946.373;;;;
2019/05/14 09:31:21;;;;;;;5.4;2.6;;;;;;;12.19;38.99023;946.4388;;;;
2019/05/14 09:33:59;;;;;;;5.2;2.1;;;;;;;11.98;38.96094;946.448;;;;
2019/05/14 09:36:30;;;;;;;7;2.6;;;;;;;11.76;41.11621;946.3645;;;;
2019/05/14 09:38:55;;;;;;;7.7;2.5;;;;;;;10.94;42.30762;946.412;;;;
2019/05/14 09:41:49;;;;;;;6.4;2.3;;;;;;;11.12;44.16602;946.4352;;;;
2019/05/14 09:44:04;;;;;;;5.1;2.3;;;;;;;11.13;42.46387;946.4514;;;;
2019/05/14 09:46:31;;;;;;;5.9;2.2;;;;;;;10.94;42.15918;946.4416;;;;
2019/05/14 09:48:57;;;;;;;3.6;1.7;;;;;;;10.88;39.94824;946.3788;;;;
2019/05/14 09:51:29;;;;;;;7.5;2.1;;;;;;;10.93;39.94043;946.3663;;;;
2019/05/14 09:54:02;;;;;;;4.4;1.9;;;;;;;10.98;39.95703;946.4169;;;;
2019/05/14 09:56:28;;;;;;;6.7;1.9;;;;;;;11.14;37.13574;946.4681;;;;
2019/05/14 09:58:52;;;;;;;4.2;2;;;;;;;11.16;37.89258;946.4064;;;;
2019/05/14 10:01:28;;;;;;;6.3;2.4;;;;;;;11.13;37.38672;946.4855;;;;
2019/05/14 10:03:58;;;;;;;7.5;2.2;;;;;;;10.5;40.80273;946.4607;;;;
2019/05/14 10:06:31;;;;;;;6.1;2.1;;;;;;;10.85;41.41797;946.5518;;;;
2019/05/14 10:08:56;;;;;;;6.6;2.2;;;;;;;11.19;42.97266;946.5999;;;;
2019/05/14 10:11:24;;;;;;;5.8;2.3;;;;;;;11.27;40.42969;946.6488;;;;
2019/05/14 10:13:57;;;;;;;6.3;2.1;;;;;;;11.35;40.4248;946.6887;;;;
2019/05/14 10:16:23;;;;;;;6;2.3;;;;;;;11.53;40.56836;946.5754;;;;
2019/05/14 10:18:48;;;;;;;9.4;3.1;;;;;;;11.77;42.53711;946.5895;;;;
2019/05/14 10:21:28;;;;;;;8;2.5;;;;;;;12.33;41.80078;946.618;;;;
2019/05/14 10:30:04;;;;;;;5.1;2.3;;;;;;;12.5;38.37695;946.5011;;;;
2019/05/14 10:32:29;;;;;;;6.1;2.3;;;;;;;12.28;39.61816;946.5037;;;;
2019/05/14 10:34:58;;;;;;;4.2;2.1;;;;;;;12.62;39.4541;946.4904;;;;
2019/05/14 10:37:30;;;;;;;6.3;2.1;;;;;;;12.31;39.77051;946.4539;;;;
2019/05/14 10:40:09;;;;;;;4.5;2;;;;;;;12.53;41.08594;946.4176;;;;
2019/05/14 10:42:33;;;;;;;4.6;2;;;;;;;12.61;41.33594;946.4272;;;;
2019/05/14 10:44:59;;;;;;;6.2;2.3;;;;;;;13.06;40.18359;946.438;;;;
2019/05/14 10:47:28;;;;;;;4.8;1.9;;;;;;;13.3;37.97656;946.3911;;;;
2019/05/14 10:50:00;;;;;;;5.1;2;;;;;;;13.87;36.80566;946.3901;;;;
2019/05/14 10:52:33;;;;;;;5;2;;;;;;;14.29;35.75879;946.384;;;;
2019/05/14 10:54:59;;;;;;;5.3;2.1;;;;;;;14.09;33.06055;946.3645;;;;
2019/05/14 10:57:31;;;;;;;5.2;2;;;;;;;14.24;34.84473;946.342;;;;
2019/05/14 10:59:51;;;;;;;4.8;2;;;;;;;14.26;33.2002;946.3358;;;;
2019/05/14 11:02:28;;;;;;;3.8;1.8;;;;;;;14.02;34.58594;946.2902;;;;
2019/05/14 11:05:11;;;;;;;4.7;1.9;;;;;;;13.9;33.31055;946.2206;;;;
2019/05/14 11:07:34;;;;;;;3.8;1.7;;;;;;;13.99;34.40039;946.1727;;;;
2019/05/14 11:10:22;;;;;;;10.3;2.1;;;;;;;14.12;32.97168;946.0797;;;;
2019/05/14 11:12:56;;;;;;;3.6;1.7;;;;;;;14.27;32.80957;946.0867;;;;
2019/05/14 11:15:29;;;;;;;5.6;2;;;;;;;13.83;32.91504;946.1369;;;;
2019/05/14 11:17:56;;;;;;;3.7;1.8;;;;;;;13.94;32.85352;946.0714;;;;
2019/05/14 11:20:27;;;;;;;4;1.7;;;;;;;14.35;31.35254;946.0665;;;;
2019/05/14 11:23:02;;;;;;;4;2;;;;;;;13.94;31.875;946.0714;;;;
2019/05/14 11:25:32;;;;;;;4.5;2.1;;;;;;;14.41;31.93359;946.0986;;;;
2019/05/14 11:28:06;;;;;;;4.8;2.1;;;;;;;13.85;33.55957;946.0545;;;;
2019/05/14 11:30:37;;;;;;;5;2;;;;;;;12.38;35.23535;945.9877;;;;
2019/05/14 11:32:58;;;;;;;5.1;1.9;;;;;;;12.17;36.78906;945.946;;;;
2019/05/14 11:35:26;;;;;;;5.4;2;;;;;;;12.73;37.89258;945.9902;;;;
2019/05/14 11:37:57;;;;;;;6.4;2.3;;;;;;;12.9;36.25391;945.9662;;;;
2019/05/14 11:40:25;;;;;;;5.2;1.9;;;;;;;12.87;35.90723;946.0122;;;;
2019/05/14 11:42:50;;;;;;;7;2.2;;;;;;;12.6;38.61426;945.968;;;;
2019/05/14 11:45:20;;;;;;;5.5;2.1;;;;;;;12.6;37.13477;945.9767;;;;
2019/05/14 11:47:47;;;;;;;6.4;2.2;;;;;;;12.32;40.10254;945.9844;;;;
2019/05/14 11:50:22;;;;;;;7.9;2.2;;;;;;;12.03;41.49707;945.9461;;;;
2019/05/14 11:52:52;;;;;;;4.1;2.3;;;;;;;11.79;39.02344;945.9583;;;;
2019/05/14 11:55:17;;;;;;;8.2;2.1;;;;;;;12.35;38.72949;946.0503;;;;
2019/05/14 11:57:48;;;;;;;7.6;2.4;;;;;;;12.27;39.04395;946.0356;;;;
2019/05/14 12:00:20;;;;;;;5.6;2.3;;;;;;;12.34;39.75;946.0334;;;;
2019/05/14 12:02:46;;;;;;;6.2;2.3;;;;;;;12.49;37.94043;946.0073;;;;
2019/05/14 12:05:15;;;;;;;7.1;2.3;;;;;;;12.59;37.51172;945.9734;;;;
2019/05/14 12:07:48;;;;;;;7.5;2.4;;;;;;;12.92;38.35645;945.9737;;;;
2019/05/14 12:10:19;;;;;;;4.6;2.3;;;;;;;13.46;36.84082;945.8948;;;;
2019/05/14 12:12:46;;;;;;;3.5;2.2;;;;;;;13.33;36.34766;945.9059;;;;
2019/05/14 12:15:24;;;;;;;5.6;2.6;;;;;;;13.02;38.67578;945.8449;;;;
2019/05/14 12:17:57;;;;;;;7.4;2.6;;;;;;;13.15;38.36523;945.9185;;;;
2019/05/14 12:20:24;;;;;;;4.5;2.3;;;;;;;13.03;35.88477;945.8395;;;;
2019/05/14 12:22:58;;;;;;;5.2;2.4;;;;;;;12.17;38.55371;945.7974;;;;
2019/05/14 12:25:24;;;;;;;5.6;2.4;;;;;;;11.18;42.36523;945.75;;;;
2019/05/14 12:27:52;;;;;;;4.5;2.4;;;;;;;11.71;41.18066;945.7651;;;;
2019/05/14 12:30:19;;;;;;;5.2;2.2;;;;;;;12.25;40.36133;945.7008;;;;
2019/05/14 12:32:43;;;;;;;8;2.6;;;;;;;12.44;39.08203;945.7141;;;;
2019/05/14 12:35:07;;;;;;;4.5;2.7;;;;;;;12.55;39.33301;945.7125;;;;
2019/05/14 12:37:34;;;;;;;5.6;2.3;;;;;;;12.3;40.55957;945.7094;;;;
2019/05/14 12:40:07;;;;;;;7.6;2.5;;;;;;;12.33;39.875;945.6132;;;;
2019/05/14 12:42:38;;;;;;;6.7;2.5;;;;;;;12.57;40.63184;945.5658;;;;
2019/05/14 12:45:08;;;;;;;4.6;2.1;;;;;;;13.78;40.21484;945.574;;;;
2019/05/14 12:47:43;;;;;;;4.8;2.2;;;;;;;14.17;36.38281;945.545;;;;
2019/05/14 12:50:14;;;;;;;5.1;2.3;;;;;;;14.67;37.28906;945.45;;;;
2019/05/14 12:52:44;;;;;;;3.7;2.2;;;;;;;15.17;34.35449;945.451;;;;
2019/05/14 12:55:11;;;;;;;5.9;2.4;;;;;;;15.4;32.57129;945.3131;;;;
2019/05/14 12:57:36;;;;;;;5.8;2.3;;;;;;;15.15;35.64551;945.3547;;;;
2019/05/14 13:00:05;;;;;;;4.8;2.2;;;;;;;14.94;34.48633;945.372;;;;
2019/05/14 13:02:42;;;;;;;5.9;2.4;;;;;;;14.91;33.72266;945.2845;;;;
2019/05/14 13:05:13;;;;;;;6.3;2.2;;;;;;;14.27;34.93945;945.3865;;;;
2019/05/14 13:07:46;;;;;;;4.9;2.2;;;;;;;13.59;36.80566;945.3184;;;;
2019/05/14 13:10:11;;;;;;;4.3;2.3;;;;;;;13;40.16602;945.3055;;;;
2019/05/14 13:12:37;;;;;;;4.4;2.2;;;;;;;12.71;40.51855;945.3953;;;;
2019/05/14 13:15:11;;;;;;;10.5;5.8;;;;;;;11.3;44.72168;945.4344;;;;
2019/05/14 13:17:39;;;;;;;3.8;2.4;;;;;;;11.51;44.10254;945.3904;;;;
2019/05/14 13:20:07;;;;;;;5.6;2.4;;;;;;;12.25;42.60645;945.3565;;;;
2019/05/14 13:22:34;;;;;;;4.5;2.2;;;;;;;12.09;43.10645;945.413;;;;
2019/05/14 13:25:05;;;;;;;3.8;2;;;;;;;12.13;41.77148;945.3578;;;;
2019/05/14 13:27:35;;;;;;;4.2;2.2;;;;;;;12.49;39.43164;945.3306;;;;
2019/05/14 13:30:05;;;;;;;4.7;2.7;;;;;;;11.73;39.17871;945.3499;;;;
2019/05/14 13:32:46;;;;;;;5.5;2.1;;;;;;;12.14;42.82617;945.464;;;;
2019/05/14 13:35:06;;;;;;;7;2.5;;;;;;;11.92;43.37695;945.5809;;;;
2019/05/14 13:37:40;;;;;;;5.5;2.3;;;;;;;11.73;43.87305;945.6435;;;;
2019/05/14 13:40:10;;;;;;;4.7;2.7;;;;;;;11.12;46.95508;945.67;;;;
2019/05/14 13:42:37;;;;;;;5.4;3.1;;;;;;;10.5;50.49609;945.6152;;;;
2019/05/14 13:45:09;;;;;;;5.7;2.7;;;;;;;10.76;50.30859;945.628;;;;
2019/05/14 13:47:37;;;;;;;5.2;2.8;;;;;;;10.72;51.05859;945.6439;;;;
2019/05/14 13:50:01;;;;;;;5.7;3.1;;;;;;;10.45;52.28223;945.5391;;;;
2019/05/14 13:52:27;;;;;;;6.8;3.1;;;;;;;9.47;53.86035;945.4725;;;;
2019/05/14 13:54:54;;;;;;;5.6;3.3;;;;;;;9.13;58.50781;945.4855;;;;
2019/05/14 13:57:23;;;;;;;6.3;3.4;;;;;;;9.95;56.72559;945.4559;;;;
2019/05/14 13:59:55;;;;;;;7.8;3.4;;;;;;;10.15;55.96484;945.3758;;;;
2019/05/14 14:02:17;;;;;;;5.5;3.3;;;;;;;10.94;52.91309;945.3451;;;;
2019/05/14 14:04:45;;;;;;;9;3.9;;;;;;;11.24;52.76758;945.2221;;;;
2019/05/14 14:07:09;;;;;;;11.9;7.8;;;;;;;11.39;51.98438;945.3284;;;;
2019/05/14 14:09:37;;;;;;;8.1;4.1;;;;;;;11.18;51.77539;945.3298;;;;
2019/05/14 14:12:10;;;;;;;7.7;3.6;;;;;;;10.33;53.2373;945.3491;;;;
2019/05/14 14:14:38;;;;;;;5.5;3;;;;;;;10.73;51.83789;945.2905;;;;
2019/05/14 14:17:05;;;;;;;5.8;2.9;;;;;;;10.26;49.23535;945.3167;;;;
2019/05/14 14:19:37;;;;;;;6.6;3.2;;;;;;;10.62;52.42773;945.3766;;;;
2019/05/14 14:22:09;;;;;;;6;3.2;;;;;;;11.09;52.91992;945.3035;;;;
2019/05/14 14:29:59;;;;;;;7.9;3.1;;;;;;;11.89;45.25195;945.3283;;;;
2019/05/14 14:32:27;;;;;;;7.7;3.5;;;;;;;11.74;46.41504;945.2518;;;;
2019/05/14 14:34:53;;;;;;;5.8;3.3;;;;;;;10.89;48.25684;945.2644;;;;
2019/05/14 14:37:28;;;;;;;6.4;2.8;;;;;;;10.62;49.12793;945.2149;;;;
2019/05/14 14:40:03;;;;;;;6;2.9;;;;;;;10.23;50.22461;945.2213;;;;
2019/05/14 14:42:33;;;;;;;5.9;2.6;;;;;;;9.76;51.10547;945.1483;;;;
2019/05/14 14:45:16;;;;;;;9;3.2;;;;;;;9.3;55.92383;945.0658;;;;
2019/05/14 14:47:35;;;;;;;18.6;3.5;;;;;;;9.45;56.16992;945.0967;;;;
2019/05/14 14:50:02;;;;;;;10.4;3.3;;;;;;;9.71;56.35352;945.0207;;;;
2019/05/14 14:52:35;;;;;;;6.3;2.9;;;;;;;9.43;54.77832;945.0812;;;;
2019/05/14 14:55:06;;;;;;;7.8;3.1;;;;;;;9.15;57.13281;945.1833;;;;
2019/05/14 14:57:31;;;;;;;5.6;3;;;;;;;9.27;56.73828;945.1873;;;;
2019/05/14 15:00:05;;;;;;;4.9;2.7;;;;;;;9.22;56.33301;945.5134;;;;
2019/05/14 15:02:27;;;;;;;6.2;2.9;;;;;;;8.77;59.68555;945.687;;;;
2019/05/14 15:04:59;;;;;;;4.9;3;;;;;;;7.2;69.25781;945.6297;;;;
2019/05/14 15:07:31;;;;;;;5.7;3.4;;;;;;;6.81;72.97559;945.8884;;;;
2019/05/14 15:10:10;;;;;;;6.4;3.2;;;;;;;6.48;73.83496;946.113;;;;
2019/05/14 15:12:31;;;;;;;5.5;3.1;;;;;;;5.98;76.3916;945.9426;;;;
2019/05/14 15:14:58;;;;;;;3.5;2.9;;;;;;;5.94;73.81055;945.5778;;;;
2019/05/14 15:17:24;;;;;;;6.1;3.5;;;;;;;6.61;75.92871;945.6149;;;;
2019/05/14 15:19:56;;;;;;;8.6;5;;;;;;;7.16;72.5918;945.5903;;;;
2019/05/14 15:22:28;;;;;;;6.1;3.4;;;;;;;7.3;72.92285;945.4836;;;;
2019/05/14 15:24:57;;;;;;;4.9;3.3;;;;;;;7.5;69.53223;945.3597;;;;
2019/05/14 15:27:23;;;;;;;4.8;3.2;;;;;;;7.74;70.56836;945.3723;;;;
2019/05/14 15:29:47;;;;;;;4.3;2.8;;;;;;;7.55;65.75391;945.2291;;;;
2019/05/14 15:32:21;;;;;;;5;3.1;;;;;;;7.44;66.42773;945.1953;;;;
2019/05/14 15:34:50;;;;;;;4.4;3.2;;;;;;;7.54;69.0293;945.2256;;;;
2019/05/14 15:37:16;;;;;;;5.3;3.4;;;;;;;8.07;69.03418;945.188;;;;
2019/05/14 15:39:42;;;;;;;4.9;3;;;;;;;8.52;65.11816;945.0829;;;;
2019/05/14 15:42:15;;;;;;;3.2;2.9;;;;;;;8.16;70.79785;945.0969;;;;
2019/05/14 15:44:42;;;;;;;4.9;2.5;;;;;;;8.62;66.42871;945.097;;;;
2019/05/14 15:50:49;;;;;;;3.8;3.1;;;;;;;9.41;67.53027;945.0108;;;;
2019/05/14 15:53:19;;;;;;;4.3;2.5;;;;;;;9.37;62.63867;944.9967;;;;
2019/05/14 15:55:46;;;;;;;2.5;2.1;;;;;;;9.21;62.69629;944.8864;;;;
2019/05/14 15:58:12;;;;;;;2.9;1.9;;;;;;;8.56;60.25977;944.8006;;;;
2019/05/14 16:00:42;;;;;;;2.4;2;;;;;;;8.53;58.75488;944.7354;;;;
2019/05/14 16:03:07;;;;;;;4.2;2.5;;;;;;;8.94;62.41602;944.7381;;;;
2019/05/14 16:05:37;;;;;;;4.4;2.8;;;;;;;8.53;66.24414;944.7227;;;;
2019/05/14 16:08:02;;;;;;;3.6;2.8;;;;;;;8.35;65.14844;944.7531;;;;
2019/05/14 16:10:35;;;;;;;4.3;3;;;;;;;7.9;66.61328;944.7433;;;;
2019/05/14 16:13:06;;;;;;;4.4;3.2;;;;;;;7.5;66.3125;944.8145;;;;
2019/05/14 16:15:40;;;;;;;3.4;2.9;;;;;;;7.59;68.75293;944.8333;;;;
2019/05/14 16:18:10;;;;;;;4.9;3.3;;;;;;;7.74;69.38867;944.7889;;;;
2019/05/14 16:20:35;;;;;;;5.9;4.3;;;;;;;7.98;67.2959;944.7417;;;;
2019/05/14 16:23:07;;;;;;;5;3.9;;;;;;;8.15;66.07227;944.7294;;;;
2019/05/14 16:25:32;;;;;;;5.1;4.1;;;;;;;8.43;67.70605;944.7003;;;;
2019/05/14 16:28:01;;;;;;;5.7;3.6;;;;;;;8.65;66.53711;944.747;;;;
2019/05/14 16:30:28;;;;;;;4.7;3.6;;;;;;;8.62;63.98438;944.7286;;;;
2019/05/14 16:33:08;;;;;;;5.6;2.6;;;;;;;8.45;64.65234;944.7078;;;;
2019/05/14 16:35:33;;;;;;;4.6;2.9;;;;;;;8.73;65.97949;944.669;;;;
2019/05/14 16:38:05;;;;;;;4;2.6;;;;;;;8.67;63.09473;944.5761;;;;
2019/05/14 16:40:34;;;;;;;3.8;2.8;;;;;;;8.22;65.96875;944.6144;;;;
2019/05/14 16:42:59;;;;;;;3.9;2.5;;;;;;;8.16;66.44824;944.5511;;;;
2019/05/14 16:45:24;;;;;;;4.4;2.3;;;;;;;8.4;65.75879;944.5204;;;;
2019/05/14 16:48:00;;;;;;;3.9;2.6;;;;;;;8.97;63.99121;944.4561;;;;
2019/05/14 16:50:27;;;;;;;4.3;2.6;;;;;;;9.16;64.64551;944.4412;;;;
2019/05/14 16:52:52;;;;;;;2.9;2.3;;;;;;;8.77;63.74609;944.3357;;;;
2019/05/14 16:55:18;;;;;;;3.6;2.3;;;;;;;8.6;62.99316;944.2134;;;;
2019/05/14 16:57:47;;;;;;;4.3;2.7;;;;;;;8.48;67.59961;944.265;;;;
2019/05/14 17:00:24;;;;;;;3.9;2.5;;;;;;;8.68;64.93652;944.2158;;;;
2019/05/14 17:02:47;;;;;;;4;2.6;;;;;;;8.66;64.77637;944.2003;;;;
2019/05/14 17:05:15;;;;;;;3.3;2.5;;;;;;;8.49;65.23926;944.1114;;;;
2019/05/14 17:07:39;;;;;;;3.5;2.7;;;;;;;8.34;65.97656;944.2078;;;;
2019/05/14 17:10:08;;;;;;;4.1;2.9;;;;;;;8.34;67.83984;944.3895;;;;
2019/05/14 17:12:39;;;;;;;5.9;3.3;;;;;;;8.27;67.95313;944.5514;;;;
2019/05/14 17:15:01;;;;;;;5.6;3;;;;;;;8.01;68.80957;944.7819;;;;